Time;durP1;ratioP1;P1;durP2;ratioP2;P2;SDS_P1;SDS_P2;PMS_P1;PMS_P2;Temp;Humidity;BMP_temperature;BMP_pressure;BME280_temperature;BME280_humidity;BME280_pressure;Samples;Min_cycle;Max_cycle;Signal;HPM_P1;HPM_P2
2023/09/08 00:01:24;;;;;;;4.90;4.10;;;;;;;;;;6242730;23;20016;-86
2023/09/08 00:03:50;;;;;;;5.95;4.55;;;;;;;;;;6241659;23;20488;-86
2023/09/08 00:06:16;;;;;;;7.30;4.10;;;;;;;;;;6239782;23;20019;-86
2023/09/08 00:08:43;;;;;;;7.30;4.25;;;;;;;;;;6242012;23;20102;-86
2023/09/08 00:11:09;;;;;;;5.13;4.00;;;;;;;;;;6241286;23;20019;-86
2023/09/08 00:13:35;;;;;;;4.43;4.03;;;;;;;;;;6242841;23;20440;-86
2023/09/08 00:16:01;;;;;;;4.78;4.30;;;;;;;;;;6241489;23;20039;-86
2023/09/08 00:18:27;;;;;;;5.95;5.20;;;;;;;;;;6239304;23;20346;-86
2023/09/08 00:20:53;;;;;;;4.85;4.35;;;;;;;;;;6240932;23;20048;-86
2023/09/08 00:23:19;;;;;;;6.15;4.88;;;;;;;;;;6214241;23;20020;-86
2023/09/08 00:25:45;;;;;;;6.28;4.47;;;;;;;;;;6214757;23;20016;-86
2023/09/08 00:28:11;;;;;;;5.53;4.50;;;;;;;;;;6214660;23;20426;-86
2023/09/08 00:30:37;;;;;;;6.15;4.60;;;;;;;;;;6241327;23;20012;-86
2023/09/08 00:33:03;;;;;;;6.43;4.65;;;;;;;;;;6240755;23;20329;-86
2023/09/08 00:35:29;;;;;;;5.57;4.85;;;;;;;;;;6239901;23;20016;-86
2023/09/08 00:37:55;;;;;;;6.60;4.45;;;;;;;;;;6240313;23;20047;-86
2023/09/08 00:40:21;;;;;;;4.70;4.30;;;;;;;;;;6241152;23;20363;-86
2023/09/08 00:42:47;;;;;;;5.15;4.28;;;;;;;;;;6242149;23;20027;-86
2023/09/08 00:45:13;;;;;;;5.60;4.18;;;;;;;;;;6241242;23;20519;-86
2023/09/08 00:47:39;;;;;;;5.68;4.50;;;;;;;;;;6214452;23;20044;-86
2023/09/08 00:50:06;;;;;;;7.32;5.18;;;;;;;;;;6213472;23;20011;-86
2023/09/08 00:52:33;;;;;;;5.68;4.45;;;;;;;;;;6213852;23;20319;-86
2023/09/08 00:55:00;;;;;;;5.32;4.57;;;;;;;;;;6241121;23;20016;-86
2023/09/08 00:57:26;;;;;;;5.32;4.18;;;;;;;;;;6241033;23;20016;-86
2023/09/08 00:59:52;;;;;;;7.03;4.25;;;;;;;;;;6241720;23;20459;-86
2023/09/08 01:02:18;;;;;;;5.07;4.13;;;;;;;;;;6213094;23;20020;-86
2023/09/08 01:04:45;;;;;;;4.70;4.30;;;;;;;;;;6241172;23;20016;-87
2023/09/08 01:07:11;;;;;;;4.78;4.25;;;;;;;;;;6241570;23;20057;-87
2023/09/08 01:09:37;;;;;;;4.88;4.25;;;;;;;;;;6242011;23;20016;-86
2023/09/08 01:12:04;;;;;;;5.78;4.13;;;;;;;;;;6214684;23;20016;-87
2023/09/08 01:14:30;;;;;;;6.75;4.88;;;;;;;;;;6214557;23;20472;-86
2023/09/08 01:16:56;;;;;;;5.28;4.18;;;;;;;;;;6213987;23;20020;-86
2023/09/08 01:19:22;;;;;;;4.45;3.92;;;;;;;;;;6214124;23;20374;-86
2023/09/08 01:22:12;;;;;;;5.40;4.47;;;;;;;;;;6215317;23;20051;-87
2023/09/08 01:24:38;;;;;;;5.03;4.35;;;;;;;;;;6196147;23;20043;-86
2023/09/08 01:27:07;;;;;;;5.80;4.15;;;;;;;;;;6214319;23;20019;-86
2023/09/08 01:29:33;;;;;;;6.35;4.55;;;;;;;;;;6241431;23;20094;-87
2023/09/08 01:32:00;;;;;;;4.55;4.03;;;;;;;;;;6212464;23;20020;-86
2023/09/08 01:34:26;;;;;;;5.75;4.50;;;;;;;;;;6213874;23;20321;-86
2023/09/08 01:36:53;;;;;;;5.50;4.55;;;;;;;;;;6214476;23;20050;-87
2023/09/08 01:39:19;;;;;;;7.85;4.15;;;;;;;;;;6240906;23;20464;-86
2023/09/08 01:41:45;;;;;;;5.20;4.22;;;;;;;;;;6241309;23;20023;-86
2023/09/08 01:44:12;;;;;;;6.43;5.03;;;;;;;;;;6240726;23;20364;-86
2023/09/08 01:46:39;;;;;;;6.32;4.35;;;;;;;;;;6241486;23;20074;-87
2023/09/08 01:49:05;;;;;;;5.57;4.85;;;;;;;;;;6240878;23;20087;-86
2023/09/08 01:51:31;;;;;;;6.97;4.32;;;;;;;;;;6240579;23;20087;-86
2023/09/08 01:53:57;;;;;;;5.78;4.45;;;;;;;;;;6240897;23;20070;-86
2023/09/08 01:56:23;;;;;;;4.90;4.40;;;;;;;;;;6213995;23;20016;-87
2023/09/08 01:58:49;;;;;;;6.70;4.72;;;;;;;;;;6241233;23;20019;-85
2023/09/08 02:01:15;;;;;;;5.60;4.28;;;;;;;;;;6239875;23;20012;-86
2023/09/08 02:03:41;;;;;;;7.68;4.63;;;;;;;;;;6241571;23;20087;-86
2023/09/08 02:06:07;;;;;;;5.30;4.35;;;;;;;;;;6213651;23;20824;-86
2023/09/08 02:08:33;;;;;;;6.88;4.80;;;;;;;;;;6241595;23;20097;-86
2023/09/08 02:10:59;;;;;;;5.85;4.60;;;;;;;;;;6213630;23;20012;-85
2023/09/08 02:13:25;;;;;;;5.60;4.90;;;;;;;;;;6240632;23;20059;-86
2023/09/08 02:15:51;;;;;;;5.95;4.75;;;;;;;;;;6213263;23;20020;-86
2023/09/08 02:18:17;;;;;;;5.85;4.30;;;;;;;;;;6213073;23;20091;-86
2023/09/08 02:20:43;;;;;;;5.32;4.82;;;;;;;;;;6214655;23;20047;-86
2023/09/08 02:23:09;;;;;;;6.75;4.72;;;;;;;;;;6212447;23;20074;-86
2023/09/08 02:25:35;;;;;;;5.82;5.30;;;;;;;;;;6213763;23;20020;-86
2023/09/08 02:28:01;;;;;;;7.20;4.30;;;;;;;;;;6212820;23;20087;-86
2023/09/08 02:30:27;;;;;;;5.40;4.57;;;;;;;;;;6240729;23;20022;-86
2023/09/08 02:32:54;;;;;;;5.80;5.15;;;;;;;;;;6188476;23;20015;-86
2023/09/08 02:35:20;;;;;;;6.65;5.07;;;;;;;;;;6213842;23;20020;-86
2023/09/08 02:37:46;;;;;;;6.22;5.55;;;;;;;;;;6241050;23;20468;-86
2023/09/08 02:40:13;;;;;;;5.85;4.45;;;;;;;;;;6239412;23;20012;-86
2023/09/08 02:42:39;;;;;;;4.95;4.38;;;;;;;;;;6213988;23;20012;-86
2023/09/08 02:45:05;;;;;;;7.72;5.65;;;;;;;;;;6212114;23;20458;-86
2023/09/08 02:47:31;;;;;;;8.02;4.82;;;;;;;;;;6214233;23;20016;-86
2023/09/08 02:49:57;;;;;;;5.18;4.45;;;;;;;;;;6213377;23;20027;-86
2023/09/08 02:52:23;;;;;;;5.63;4.47;;;;;;;;;;6213041;23;20031;-86
2023/09/08 02:54:49;;;;;;;6.72;4.97;;;;;;;;;;6213126;23;20019;-86
2023/09/08 02:57:15;;;;;;;7.78;5.00;;;;;;;;;;6207968;23;20055;-86
2023/09/08 02:59:41;;;;;;;5.15;4.65;;;;;;;;;;6208166;23;20021;-86
2023/09/08 03:02:07;;;;;;;5.40;4.60;;;;;;;;;;6207745;23;20020;-86
2023/09/08 03:04:33;;;;;;;5.45;4.88;;;;;;;;;;6210888;23;20013;-86
2023/09/08 03:06:59;;;;;;;6.15;5.43;;;;;;;;;;6210248;23;20020;-86
2023/09/08 03:09:25;;;;;;;7.30;5.07;;;;;;;;;;6208747;23;20075;-86
2023/09/08 03:11:51;;;;;;;6.88;5.30;;;;;;;;;;6208008;23;20055;-86
2023/09/08 03:14:17;;;;;;;6.03;4.72;;;;;;;;;;6207779;23;20055;-86
2023/09/08 03:16:43;;;;;;;5.18;4.68;;;;;;;;;;6209823;23;20096;-86
2023/09/08 03:19:09;;;;;;;6.88;5.03;;;;;;;;;;6209414;23;20100;-86
2023/09/08 03:21:35;;;;;;;6.07;5.47;;;;;;;;;;6212916;23;20092;-86
2023/09/08 03:24:01;;;;;;;5.15;4.60;;;;;;;;;;6210235;23;20067;-86
2023/09/08 03:26:27;;;;;;;6.05;5.10;;;;;;;;;;6212778;23;20106;-86
2023/09/08 03:28:53;;;;;;;7.30;5.25;;;;;;;;;;6211166;23;20075;-87
2023/09/08 03:31:19;;;;;;;9.00;4.97;;;;;;;;;;6185192;23;20013;-86
2023/09/08 03:33:45;;;;;;;6.65;5.30;;;;;;;;;;6213292;23;20008;-85
2023/09/08 03:36:11;;;;;;;5.00;4.50;;;;;;;;;;6211063;23;20016;-86
2023/09/08 03:38:37;;;;;;;6.03;5.05;;;;;;;;;;6212651;23;20052;-86
2023/09/08 03:41:04;;;;;;;5.70;4.95;;;;;;;;;;6210097;23;20021;-86
2023/09/08 03:43:30;;;;;;;5.85;4.88;;;;;;;;;;6209810;23;20046;-85
2023/09/08 03:45:56;;;;;;;6.35;4.68;;;;;;;;;;6209495;23;20012;-85
2023/09/08 03:48:22;;;;;;;5.50;4.35;;;;;;;;;;6212759;23;20338;-86
2023/09/08 03:50:49;;;;;;;6.78;4.70;;;;;;;;;;6211593;23;20012;-86
2023/09/08 03:53:15;;;;;;;6.03;4.82;;;;;;;;;;6210118;23;20449;-86
2023/09/08 03:55:41;;;;;;;5.60;5.00;;;;;;;;;;6210209;23;20021;-85
2023/09/08 03:58:07;;;;;;;5.90;4.70;;;;;;;;;;6211029;23;20434;-86
2023/09/08 04:00:33;;;;;;;7.60;5.15;;;;;;;;;;6210287;23;20020;-86
2023/09/08 04:02:59;;;;;;;6.18;4.97;;;;;;;;;;6209159;23;20016;-85
2023/09/08 04:05:25;;;;;;;8.05;5.20;;;;;;;;;;6210684;23;20020;-86
2023/09/08 04:07:51;;;;;;;6.13;5.53;;;;;;;;;;6210126;23;20027;-85
2023/09/08 04:10:17;;;;;;;7.13;5.20;;;;;;;;;;6211794;23;20019;-85
2023/09/08 04:12:44;;;;;;;6.50;4.53;;;;;;;;;;6209727;23;20248;-86
2023/09/08 04:15:10;;;;;;;6.57;4.90;;;;;;;;;;6209282;23;20389;-85
2023/09/08 04:17:36;;;;;;;5.82;5.05;;;;;;;;;;6212453;23;20013;-86
2023/09/08 04:20:04;;;;;;;7.80;4.57;;;;;;;;;;6210805;23;20076;-86
2023/09/08 04:22:31;;;;;;;6.95;5.15;;;;;;;;;;6210014;23;20017;-86
2023/09/08 04:24:57;;;;;;;7.43;5.25;;;;;;;;;;6210369;23;20020;-86
2023/09/08 04:27:23;;;;;;;6.47;5.10;;;;;;;;;;6211017;23;20062;-85
2023/09/08 04:29:49;;;;;;;6.88;5.05;;;;;;;;;;6209928;23;20020;-86
2023/09/08 04:32:15;;;;;;;6.22;4.90;;;;;;;;;;6210104;23;20442;-87
2023/09/08 04:34:42;;;;;;;5.93;5.32;;;;;;;;;;6211776;23;20012;-86
2023/09/08 04:37:09;;;;;;;6.07;5.28;;;;;;;;;;6211246;23;20764;-86
2023/09/08 04:39:36;;;;;;;6.13;4.80;;;;;;;;;;6212373;23;20416;-89
2023/09/08 04:42:03;;;;;;;6.72;5.10;;;;;;;;;;6210465;23;20086;-85
2023/09/08 04:44:29;;;;;;;6.45;5.63;;;;;;;;;;6211785;23;20017;-86
2023/09/08 04:46:55;;;;;;;6.32;4.93;;;;;;;;;;6209523;23;20016;-86
2023/09/08 04:49:21;;;;;;;5.97;4.97;;;;;;;;;;6211849;23;20048;-87
2023/09/08 04:51:47;;;;;;;6.25;5.00;;;;;;;;;;6211373;23;20012;-88
2023/09/08 04:54:13;;;;;;;7.13;5.18;;;;;;;;;;6210705;23;20453;-84
2023/09/08 04:56:40;;;;;;;7.35;5.13;;;;;;;;;;6231401;23;20345;-86
2023/09/08 04:59:06;;;;;;;7.03;5.20;;;;;;;;;;6241710;23;20055;-86
2023/09/08 05:01:33;;;;;;;7.07;5.90;;;;;;;;;;6240041;23;20337;-86
2023/09/08 05:03:59;;;;;;;6.20;5.13;;;;;;;;;;6214784;23;20019;-84
2023/09/08 05:06:25;;;;;;;7.15;5.47;;;;;;;;;;6240854;23;20099;-85
2023/09/08 05:08:51;;;;;;;7.28;5.63;;;;;;;;;;6213672;23;20016;-85
2023/09/08 05:11:18;;;;;;;7.65;5.68;;;;;;;;;;6212243;23;20017;-85
2023/09/08 05:13:45;;;;;;;5.63;4.90;;;;;;;;;;6215011;23;20059;-83
2023/09/08 05:16:11;;;;;;;6.93;5.47;;;;;;;;;;6240335;23;20012;-83
2023/09/08 05:18:40;;;;;;;6.93;4.95;;;;;;;;;;6241600;23;20012;-83
2023/09/08 05:21:07;;;;;;;7.70;5.38;;;;;;;;;;6239483;23;20345;-83
2023/09/08 05:23:33;;;;;;;7.57;5.53;;;;;;;;;;6240000;23;20016;-83
2023/09/08 05:25:59;;;;;;;5.63;5.03;;;;;;;;;;6212246;23;20070;-83
2023/09/08 05:28:25;;;;;;;6.78;5.80;;;;;;;;;;6214293;23;20016;-83
2023/09/08 05:30:52;;;;;;;6.85;5.43;;;;;;;;;;6241627;23;20048;-84
2023/09/08 05:33:18;;;;;;;5.50;4.63;;;;;;;;;;6241653;23;20027;-84
2023/09/08 05:35:45;;;;;;;7.07;5.18;;;;;;;;;;6215257;23;20023;-84
2023/09/08 05:38:11;;;;;;;7.38;5.15;;;;;;;;;;6240093;23;20040;-85
2023/09/08 05:40:37;;;;;;;6.07;5.25;;;;;;;;;;6215537;23;20016;-84
2023/09/08 05:43:04;;;;;;;6.20;5.07;;;;;;;;;;6240491;23;20020;-84
2023/09/08 05:45:31;;;;;;;6.90;5.57;;;;;;;;;;6241700;23;20052;-83
2023/09/08 05:47:57;;;;;;;6.50;5.28;;;;;;;;;;6240664;23;20074;-84
2023/09/08 05:50:23;;;;;;;6.20;5.15;;;;;;;;;;6240390;23;20012;-83
2023/09/08 05:52:49;;;;;;;7.45;5.28;;;;;;;;;;6240855;23;20474;-83
2023/09/08 05:55:15;;;;;;;6.75;5.57;;;;;;;;;;6240731;22;20024;-83
2023/09/08 05:57:41;;;;;;;6.55;5.00;;;;;;;;;;6241579;23;20016;-83
2023/09/08 06:00:08;;;;;;;5.70;4.90;;;;;;;;;;6241170;23;20008;-83
2023/09/08 06:02:34;;;;;;;6.95;5.40;;;;;;;;;;6242065;23;20383;-87
2023/09/08 06:05:00;;;;;;;6.13;4.78;;;;;;;;;;6213429;23;20055;-81
2023/09/08 06:07:26;;;;;;;9.23;5.72;;;;;;;;;;6239257;23;20075;-84
2023/09/08 06:09:52;;;;;;;7.80;5.43;;;;;;;;;;6213334;23;20054;-85
2023/09/08 06:12:18;;;;;;;6.28;4.95;;;;;;;;;;6239989;23;20012;-82
2023/09/08 06:14:44;;;;;;;13.05;7.25;;;;;;;;;;6239400;23;20114;-81
2023/09/08 06:17:10;;;;;;;11.02;5.40;;;;;;;;;;6239237;23;20044;-82
2023/09/08 06:19:36;;;;;;;7.53;5.53;;;;;;;;;;6241209;23;20429;-82
2023/09/08 06:22:02;;;;;;;5.60;5.00;;;;;;;;;;6239401;23;20109;-83
2023/09/08 06:24:28;;;;;;;7.78;5.68;;;;;;;;;;6240167;23;20016;-83
2023/09/08 06:26:54;;;;;;;7.40;5.80;;;;;;;;;;6240110;23;20024;-83
2023/09/08 06:29:20;;;;;;;6.30;5.35;;;;;;;;;;6240139;23;20014;-83
2023/09/08 06:31:46;;;;;;;5.85;5.03;;;;;;;;;;6236890;23;20016;-83
2023/09/08 06:34:12;;;;;;;6.50;4.75;;;;;;;;;;6211910;23;20015;-83
2023/09/08 06:36:38;;;;;;;7.57;5.22;;;;;;;;;;6239897;23;20031;-83
2023/09/08 06:39:04;;;;;;;6.85;5.32;;;;;;;;;;6239647;23;20016;-82
2023/09/08 06:41:30;;;;;;;6.70;5.45;;;;;;;;;;6213860;23;20337;-83
2023/09/08 06:43:56;;;;;;;6.32;5.13;;;;;;;;;;6211200;23;20012;-84
2023/09/08 06:46:22;;;;;;;6.05;5.45;;;;;;;;;;6240402;23;20373;-82
2023/09/08 06:48:48;;;;;;;6.38;4.80;;;;;;;;;;6214583;23;20023;-82
2023/09/08 06:51:14;;;;;;;7.13;5.38;;;;;;;;;;6239164;23;20012;-82
2023/09/08 06:53:40;;;;;;;6.50;5.80;;;;;;;;;;6240940;23;20400;-81
2023/09/08 06:56:06;;;;;;;5.57;5.07;;;;;;;;;;6239958;23;20055;-81
2023/09/08 06:58:32;;;;;;;6.20;5.13;;;;;;;;;;6240712;23;20091;-83
2023/09/08 07:00:58;;;;;;;7.60;5.18;;;;;;;;;;6211899;23;20016;-82
2023/09/08 07:03:26;;;;;;;10.57;5.28;;;;;;;;;;6241282;23;20012;-82
2023/09/08 07:05:52;;;;;;;7.38;5.38;;;;;;;;;;6238663;23;20024;-82
2023/09/08 07:08:18;;;;;;;5.97;5.38;;;;;;;;;;6238303;23;20437;-82
2023/09/08 07:10:44;;;;;;;5.80;5.20;;;;;;;;;;6240754;23;20008;-83
2023/09/08 07:13:10;;;;;;;5.72;4.50;;;;;;;;;;6240292;23;20012;-82
2023/09/08 07:15:36;;;;;;;7.28;5.38;;;;;;;;;;6241538;23;20457;-83
2023/09/08 07:18:03;;;;;;;6.85;5.53;;;;;;;;;;6213772;23;20061;-81
2023/09/08 07:20:30;;;;;;;7.30;5.57;;;;;;;;;;6212415;23;20086;-82
2023/09/08 07:22:56;;;;;;;6.07;4.88;;;;;;;;;;6213122;23;20074;-83
2023/09/08 07:25:22;;;;;;;5.85;5.35;;;;;;;;;;6239909;23;20017;-83
2023/09/08 07:27:48;;;;;;;8.18;5.35;;;;;;;;;;6240047;23;20019;-83
2023/09/08 07:30:14;;;;;;;8.27;5.60;;;;;;;;;;6239585;23;20024;-82
2023/09/08 07:32:40;;;;;;;6.53;4.72;;;;;;;;;;6240098;23;20012;-82
2023/09/08 07:35:13;;;;;;;8.18;5.38;;;;;;;;;;6238917;23;20143;-82
2023/09/08 07:37:39;;;;;;;6.35;4.55;;;;;;;;;;6241304;23;20019;-82
2023/09/08 07:40:05;;;;;;;5.55;4.80;;;;;;;;;;6240833;23;20008;-82
2023/09/08 07:42:31;;;;;;;6.82;5.35;;;;;;;;;;6240770;23;20008;-82
2023/09/08 07:44:57;;;;;;;7.47;5.00;;;;;;;;;;6240641;23;20434;-82
2023/09/08 07:47:23;;;;;;;6.40;5.30;;;;;;;;;;6214077;23;20031;-82
2023/09/08 07:49:50;;;;;;;6.50;5.35;;;;;;;;;;6240170;23;20012;-82
2023/09/08 07:52:16;;;;;;;9.35;5.50;;;;;;;;;;6240761;23;20019;-83
2023/09/08 07:54:42;;;;;;;6.05;5.40;;;;;;;;;;6241362;23;20030;-81
2023/09/08 07:57:08;;;;;;;6.18;5.13;;;;;;;;;;6239862;23;20012;-82
2023/09/08 07:59:34;;;;;;;8.93;4.72;;;;;;;;;;6240083;23;20043;-81
2023/09/08 08:02:02;;;;;;;5.72;4.88;;;;;;;;;;6239208;23;20016;-83
2023/09/08 08:04:28;;;;;;;6.22;4.30;;;;;;;;;;6239780;23;20129;-82
2023/09/08 08:06:54;;;;;;;5.45;4.38;;;;;;;;;;6241733;23;20044;-82
2023/09/08 08:09:20;;;;;;;7.20;4.38;;;;;;;;;;6240537;23;20035;-82
2023/09/08 08:11:46;;;;;;;5.18;4.30;;;;;;;;;;6242832;23;20031;-83
2023/09/08 08:14:12;;;;;;;5.15;4.28;;;;;;;;;;6242096;23;20008;-84
2023/09/08 08:16:38;;;;;;;8.30;4.57;;;;;;;;;;6243138;23;20047;-82
2023/09/08 08:19:04;;;;;;;6.22;4.63;;;;;;;;;;6214339;23;20012;-84
2023/09/08 08:21:30;;;;;;;5.05;4.55;;;;;;;;;;6242428;23;20434;-85
2023/09/08 08:23:56;;;;;;;4.70;4.28;;;;;;;;;;6214490;23;20016;-83
2023/09/08 08:26:27;;;;;;;6.50;4.75;;;;;;;;;;6242666;23;20061;-83
2023/09/08 08:28:53;;;;;;;5.55;4.45;;;;;;;;;;6215246;23;20713;-83
2023/09/08 08:31:19;;;;;;;4.90;4.40;;;;;;;;;;6215341;23;20040;-83
2023/09/08 08:33:45;;;;;;;4.57;4.10;;;;;;;;;;6241432;23;20098;-83
2023/09/08 08:36:11;;;;;;;5.97;4.70;;;;;;;;;;6241386;23;20471;-82
2023/09/08 08:38:37;;;;;;;5.55;4.40;;;;;;;;;;6242166;23;20055;-82
2023/09/08 08:41:06;;;;;;;5.07;4.40;;;;;;;;;;6240758;23;20016;-82
2023/09/08 08:43:32;;;;;;;5.65;4.55;;;;;;;;;;6214975;23;20012;-82
2023/09/08 08:45:59;;;;;;;7.03;4.50;;;;;;;;;;6241665;23;20008;-82
2023/09/08 08:48:26;;;;;;;6.00;4.30;;;;;;;;;;6241269;23;20016;-82
2023/09/08 08:50:52;;;;;;;5.00;4.43;;;;;;;;;;6242235;23;20134;-82
2023/09/08 08:53:21;;;;;;;5.07;4.25;;;;;;;;;;6215249;23;20448;-83
2023/09/08 08:55:47;;;;;;;5.78;3.33;;;;;;;;;;6242669;23;20016;-82
2023/09/08 08:58:14;;;;;;;5.32;4.43;;;;;;;;;;6241074;23;20050;-83
2023/09/08 09:00:40;;;;;;;5.18;4.68;;;;;;;;;;6242167;23;20465;-82
2023/09/08 09:03:06;;;;;;;5.18;4.55;;;;;;;;;;6241221;23;20020;-82
2023/09/08 09:05:33;;;;;;;4.40;3.97;;;;;;;;;;6213699;23;20050;-81
2023/09/08 09:08:03;;;;;;;5.05;3.97;;;;;;;;;;6213712;23;20016;-83
2023/09/08 09:10:29;;;;;;;4.53;4.07;;;;;;;;;;6214687;23;20039;-83
2023/09/08 09:12:55;;;;;;;5.03;4.28;;;;;;;;;;6241781;23;20012;-83
2023/09/08 09:15:28;;;;;;;6.22;4.03;;;;;;;;;;6241785;23;20012;-84
2023/09/08 09:18:07;;;;;;;5.30;4.25;;;;;;;;;;6214478;23;20053;-83
2023/09/08 09:20:34;;;;;;;5.95;4.35;;;;;;;;;;6214949;23;20012;-83
2023/09/08 09:23:00;;;;;;;7.18;4.18;;;;;;;;;;6241494;23;20529;-83
2023/09/08 09:25:28;;;;;;;4.75;4.15;;;;;;;;;;6215096;23;20055;-84
2023/09/08 09:27:55;;;;;;;4.82;4.00;;;;;;;;;;6214652;23;20018;-83
2023/09/08 09:30:21;;;;;;;5.63;4.43;;;;;;;;;;6240860;23;20020;-83
2023/09/08 09:32:49;;;;;;;6.57;4.05;;;;;;;;;;6242402;23;20307;-83
2023/09/08 09:35:16;;;;;;;6.55;3.78;;;;;;;;;;6241744;23;20016;-83
2023/09/08 09:37:42;;;;;;;5.78;4.32;;;;;;;;;;6242082;23;20008;-84
2023/09/08 09:40:10;;;;;;;5.03;4.35;;;;;;;;;;6241409;23;20087;-83
2023/09/08 09:42:40;;;;;;;4.82;4.10;;;;;;;;;;6215222;23;20052;-83
2023/09/08 09:45:06;;;;;;;6.00;3.97;;;;;;;;;;6240844;23;20023;-84
2023/09/08 09:47:33;;;;;;;4.65;4.25;;;;;;;;;;6242009;23;20054;-83
2023/09/08 09:49:59;;;;;;;3.95;3.65;;;;;;;;;;6240640;23;20012;-84
2023/09/08 09:52:31;;;;;;;4.32;3.90;;;;;;;;;;6241972;23;20050;-84
2023/09/08 09:54:58;;;;;;;5.53;4.50;;;;;;;;;;6214162;22;20016;-86
2023/09/08 09:57:24;;;;;;;4.13;3.72;;;;;;;;;;6241656;23;20023;-83
2023/09/08 09:59:53;;;;;;;4.47;3.88;;;;;;;;;;6240638;23;20015;-83
2023/09/08 10:02:20;;;;;;;4.03;3.63;;;;;;;;;;6214383;23;20008;-83
2023/09/08 10:04:48;;;;;;;5.00;3.75;;;;;;;;;;6241690;23;20023;-83
2023/09/08 10:07:15;;;;;;;4.93;4.22;;;;;;;;;;6240782;23;20323;-82
2023/09/08 10:09:41;;;;;;;5.25;4.38;;;;;;;;;;6240699;23;20450;-80
2023/09/08 10:12:08;;;;;;;4.65;3.92;;;;;;;;;;6239479;23;20008;-81
2023/09/08 10:14:36;;;;;;;4.53;3.75;;;;;;;;;;6214166;23;20016;-81
2023/09/08 10:17:02;;;;;;;4.25;3.65;;;;;;;;;;6240794;23;20023;-81
2023/09/08 10:19:28;;;;;;;4.30;3.78;;;;;;;;;;6213199;23;20023;-81
2023/09/08 10:22:03;;;;;;;8.93;4.13;;;;;;;;;;6212938;23;20016;-81
2023/09/08 10:24:30;;;;;;;4.30;3.80;;;;;;;;;;6240054;23;20429;-83
2023/09/08 10:27:04;;;;;;;6.60;3.58;;;;;;;;;;6214147;23;20086;-81
2023/09/08 10:29:30;;;;;;;6.68;3.50;;;;;;;;;;6240587;23;20023;-81
2023/09/08 10:31:57;;;;;;;5.13;3.40;;;;;;;;;;6241187;23;20091;-83
2023/09/08 10:34:25;;;;;;;4.00;3.60;;;;;;;;;;6241546;23;20023;-85
2023/09/08 10:36:51;;;;;;;3.67;3.28;;;;;;;;;;6241608;23;20016;-84
2023/09/08 10:39:35;;;;;;;4.43;3.63;;;;;;;;;;6238541;23;20013;-83
2023/09/08 10:42:19;;;;;;;3.45;2.97;;;;;;;;;;6240973;23;20012;-81
2023/09/08 10:44:51;;;;;;;4.85;3.63;;;;;;;;;;6241064;23;20012;-81
2023/09/08 10:47:22;;;;;;;5.15;3.20;;;;;;;;;;6240103;23;20377;-81
2023/09/08 10:49:50;;;;;;;5.78;3.05;;;;;;;;;;6241504;23;20047;-81
2023/09/08 10:52:16;;;;;;;4.90;3.83;;;;;;;;;;6239915;23;20115;-82
2023/09/08 10:54:43;;;;;;;3.50;3.15;;;;;;;;;;6241702;23;20054;-82
2023/09/08 10:57:19;;;;;;;3.65;3.35;;;;;;;;;;6240249;23;20387;-81
2023/09/08 10:59:55;;;;;;;3.88;3.45;;;;;;;;;;6241254;23;20029;-81
2023/09/08 11:02:48;;;;;;;5.25;3.25;;;;;;;;;;6214354;23;20020;-81
2023/09/08 11:05:15;;;;;;;3.42;2.92;;;;;;;;;;6213932;23;20016;-81
2023/09/08 11:07:42;;;;;;;3.75;3.42;;;;;;;;;;6241089;23;20013;-82
2023/09/08 11:10:09;;;;;;;3.35;3.05;;;;;;;;;;6213878;23;20021;-81
2023/09/08 11:12:35;;;;;;;4.30;3.05;;;;;;;;;;6240550;23;20018;-81
2023/09/08 11:15:04;;;;;;;4.45;3.20;;;;;;;;;;6240982;23;20069;-81
2023/09/08 11:17:34;;;;;;;6.03;3.25;;;;;;;;;;6241093;23;20083;-81
2023/09/08 11:20:00;;;;;;;3.20;2.90;;;;;;;;;;6239305;23;20035;-82
2023/09/08 11:22:26;;;;;;;4.93;3.47;;;;;;;;;;6240842;23;20016;-81
2023/09/08 11:25:05;;;;;;;5.57;3.20;;;;;;;;;;6239439;23;20039;-81
2023/09/08 11:27:32;;;;;;;5.43;3.28;;;;;;;;;;6239362;23;20020;-80
2023/09/08 11:29:58;;;;;;;3.25;2.95;;;;;;;;;;6239822;23;20074;-80
2023/09/08 11:32:24;;;;;;;3.40;2.90;;;;;;;;;;6212705;23;20373;-80
2023/09/08 11:34:50;;;;;;;4.07;3.10;;;;;;;;;;6214097;23;20012;-81
2023/09/08 11:37:18;;;;;;;3.53;3.10;;;;;;;;;;6239531;23;20453;-81
2023/09/08 11:39:45;;;;;;;3.35;2.33;;;;;;;;;;6240838;23;20015;-81
2023/09/08 11:42:12;;;;;;;7.10;3.17;;;;;;;;;;6240682;23;20043;-81
2023/09/08 11:44:39;;;;;;;4.57;3.20;;;;;;;;;;6215894;23;20090;-80
2023/09/08 11:47:07;;;;;;;3.20;2.70;;;;;;;;;;6242018;23;20012;-81
2023/09/08 11:49:37;;;;;;;4.07;3.08;;;;;;;;;;6242583;23;20054;-81
2023/09/08 11:52:03;;;;;;;3.42;3.13;;;;;;;;;;6242369;23;20016;-80
2023/09/08 11:54:30;;;;;;;4.15;3.35;;;;;;;;;;6243114;23;20016;-83
2023/09/08 11:56:56;;;;;;;3.33;3.03;;;;;;;;;;6241179;23;20083;-82
2023/09/08 11:59:22;;;;;;;4.60;2.67;;;;;;;;;;6242180;23;20031;-82
2023/09/08 12:01:48;;;;;;;4.13;2.92;;;;;;;;;;6241932;23;20023;-81
2023/09/08 12:04:20;;;;;;;5.15;3.28;;;;;;;;;;6240855;23;20090;-81
2023/09/08 12:06:46;;;;;;;6.05;3.33;;;;;;;;;;6242341;23;20012;-81
2023/09/08 12:09:12;;;;;;;2.80;2.60;;;;;;;;;;6240351;23;20012;-80
2023/09/08 12:11:42;;;;;;;3.20;2.90;;;;;;;;;;6241754;23;20012;-81
2023/09/08 12:14:11;;;;;;;;;;;;;;;;;;6241283;23;20161;-80
2023/09/08 12:16:37;;;;;;;3.10;2.80;;;;;;;;;;6215993;23;19964;-81
2023/09/08 12:19:03;;;;;;;3.20;2.83;;;;;;;;;;6240786;23;20012;-81
2023/09/08 12:21:31;;;;;;;3.55;2.90;;;;;;;;;;6242329;23;20144;-81
2023/09/08 12:23:57;;;;;;;3.55;2.88;;;;;;;;;;6241425;23;20008;-81
2023/09/08 12:26:25;;;;;;;4.32;2.97;;;;;;;;;;6241458;23;20051;-82
2023/09/08 12:28:51;;;;;;;4.57;2.78;;;;;;;;;;6214727;23;20012;-81
2023/09/08 12:31:18;;;;;;;3.35;2.95;;;;;;;;;;6241554;23;20019;-80
2023/09/08 12:33:44;;;;;;;3.55;2.90;;;;;;;;;;6241086;23;20491;-82
2023/09/08 12:36:13;;;;;;;4.78;2.85;;;;;;;;;;6240860;23;20020;-81
2023/09/08 12:38:39;;;;;;;4.03;2.88;;;;;;;;;;6214439;23;20082;-80
2023/09/08 12:41:05;;;;;;;3.13;2.83;;;;;;;;;;6214836;23;20016;-81
2023/09/08 12:43:31;;;;;;;3.35;2.90;;;;;;;;;;6214539;23;20049;-81
2023/09/08 12:45:57;;;;;;;4.18;3.17;;;;;;;;;;6242118;23;20035;-82
2023/09/08 12:48:23;;;;;;;4.60;2.80;;;;;;;;;;6215226;23;20055;-82
2023/09/08 12:50:49;;;;;;;3.95;2.83;;;;;;;;;;6242474;23;20012;-82
2023/09/08 12:53:17;;;;;;;3.67;3.28;;;;;;;;;;6213850;23;20074;-81
2023/09/08 12:55:43;;;;;;;2.47;2.28;;;;;;;;;;6242037;23;20020;-81
2023/09/08 12:58:10;;;;;;;3.95;3.10;;;;;;;;;;6241138;23;20026;-83
2023/09/08 13:00:36;;;;;;;4.05;3.13;;;;;;;;;;6242709;23;20338;-83
2023/09/08 13:03:02;;;;;;;3.55;2.97;;;;;;;;;;6241586;23;20426;-83
2023/09/08 13:05:28;;;;;;;3.33;3.00;;;;;;;;;;6242221;23;20199;-83
2023/09/08 13:07:54;;;;;;;4.32;2.97;;;;;;;;;;6241052;23;20012;-83
2023/09/08 13:10:20;;;;;;;3.63;2.92;;;;;;;;;;6242453;23;20017;-85
2023/09/08 13:12:48;;;;;;;5.50;3.08;;;;;;;;;;6242517;23;20039;-83
2023/09/08 13:15:14;;;;;;;3.63;3.13;;;;;;;;;;6214712;23;20042;-83
2023/09/08 13:17:40;;;;;;;4.13;2.92;;;;;;;;;;6215232;23;20023;-83
2023/09/08 13:20:08;;;;;;;4.88;3.00;;;;;;;;;;6241823;23;20388;-83
2023/09/08 13:22:34;;;;;;;4.43;2.90;;;;;;;;;;6242079;23;20016;-83
2023/09/08 13:25:00;;;;;;;4.57;3.10;;;;;;;;;;6241692;23;20041;-83
2023/09/08 13:27:26;;;;;;;3.85;3.25;;;;;;;;;;6214734;23;20054;-83
2023/09/08 13:30:07;;;;;;;3.75;3.30;;;;;;;;;;6242202;23;20012;-83
2023/09/08 13:32:34;;;;;;;3.47;3.17;;;;;;;;;;6215262;23;20456;-83
2023/09/08 13:35:00;;;;;;;3.67;3.30;;;;;;;;;;6212447;23;20091;-81
2023/09/08 13:37:26;;;;;;;3.08;2.78;;;;;;;;;;6212570;23;20047;-81
2023/09/08 13:39:52;;;;;;;2.97;2.78;;;;;;;;;;6214507;23;20016;-85
2023/09/08 13:42:18;;;;;;;2.90;2.47;;;;;;;;;;6240423;23;20016;-82
2023/09/08 13:44:45;;;;;;;3.50;2.85;;;;;;;;;;6242217;23;20054;-83
2023/09/08 13:47:11;;;;;;;4.50;2.90;;;;;;;;;;6240270;23;20035;-82
2023/09/08 13:49:37;;;;;;;3.67;2.63;;;;;;;;;;6241685;23;20093;-82
2023/09/08 13:52:03;;;;;;;2.78;2.50;;;;;;;;;;6212514;23;20469;-82
2023/09/08 13:54:29;;;;;;;3.53;3.03;;;;;;;;;;6240634;23;20016;-82
2023/09/08 13:57:13;;;;;;;4.53;3.00;;;;;;;;;;6240498;23;20016;-82
2023/09/08 13:59:39;;;;;;;3.00;2.60;;;;;;;;;;6241950;23;20018;-82
2023/09/08 14:02:05;;;;;;;3.45;2.80;;;;;;;;;;6214021;23;20028;-82
2023/09/08 14:04:31;;;;;;;2.92;2.63;;;;;;;;;;6241700;23;20079;-81
2023/09/08 14:06:57;;;;;;;3.67;3.08;;;;;;;;;;6239483;23;20048;-82
2023/09/08 14:09:27;;;;;;;3.15;2.95;;;;;;;;;;6241590;23;20016;-83
2023/09/08 14:11:53;;;;;;;3.25;2.95;;;;;;;;;;6241584;23;20040;-82
2023/09/08 14:14:19;;;;;;;3.25;2.70;;;;;;;;;;6241638;23;20024;-82
2023/09/08 14:16:45;;;;;;;3.40;3.10;;;;;;;;;;6214692;23;20344;-81
2023/09/08 14:19:11;;;;;;;3.67;2.60;;;;;;;;;;6213673;23;20012;-82
2023/09/08 14:21:39;;;;;;;4.32;2.90;;;;;;;;;;6240672;23;20083;-82
2023/09/08 14:24:05;;;;;;;3.42;2.75;;;;;;;;;;6241287;23;20255;-83
2023/09/08 14:26:31;;;;;;;3.95;3.03;;;;;;;;;;6214808;23;20023;-82
2023/09/08 14:28:57;;;;;;;3.42;3.13;;;;;;;;;;6214424;23;20043;-82
2023/09/08 14:31:23;;;;;;;3.88;2.70;;;;;;;;;;6241455;23;20012;-83
2023/09/08 14:33:49;;;;;;;4.25;2.95;;;;;;;;;;6240523;23;20384;-82
2023/09/08 14:36:18;;;;;;;3.40;3.10;;;;;;;;;;6240444;23;20109;-82
2023/09/08 14:38:45;;;;;;;2.95;2.42;;;;;;;;;;6241271;23;20021;-83
2023/09/08 14:41:11;;;;;;;3.65;2.58;;;;;;;;;;6239766;23;20091;-83